sensor_id;sensor_type;location;lat;lon;timestamp;P1;durP1;ratioP1;P2;durP2;ratioP2
66129;SDS011;52930;51.464;11.764;2023-02-11T00:00:58;43.05;;;16.35;;
66129;SDS011;52930;51.464;11.764;2023-02-11T00:03:23;44.20;;;16.67;;
66129;SDS011;52930;51.464;11.764;2023-02-11T00:05:56;46.70;;;17.75;;
66129;SDS011;52930;51.464;11.764;2023-02-11T00:08:23;44.35;;;17.73;;
66129;SDS011;52930;51.464;11.764;2023-02-11T00:10:55;49.17;;;17.67;;
66129;SDS011;52930;51.464;11.764;2023-02-11T00:13:21;43.35;;;17.48;;
66129;SDS011;52930;51.464;11.764;2023-02-11T00:15:47;45.97;;;17.57;;
66129;SDS011;52930;51.464;11.764;2023-02-11T00:18:12;36.70;;;14.55;;
66129;SDS011;52930;51.464;11.764;2023-02-11T00:20:38;42.33;;;15.13;;
66129;SDS011;52930;51.464;11.764;2023-02-11T00:23:04;49.88;;;17.33;;
66129;SDS011;52930;51.464;11.764;2023-02-11T00:25:29;45.00;;;17.63;;
66129;SDS011;52930;51.464;11.764;2023-02-11T00:27:55;44.33;;;17.80;;
66129;SDS011;52930;51.464;11.764;2023-02-11T00:30:20;45.25;;;17.05;;
66129;SDS011;52930;51.464;11.764;2023-02-11T00:32:46;44.00;;;16.33;;
66129;SDS011;52930;51.464;11.764;2023-02-11T00:35:11;42.60;;;16.20;;
66129;SDS011;52930;51.464;11.764;2023-02-11T00:37:36;41.20;;;15.97;;
66129;SDS011;52930;51.464;11.764;2023-02-11T00:40:05;41.83;;;16.60;;
66129;SDS011;52930;51.464;11.764;2023-02-11T00:42:31;40.92;;;17.08;;
66129;SDS011;52930;51.464;11.764;2023-02-11T00:44:56;45.57;;;18.07;;
66129;SDS011;52930;51.464;11.764;2023-02-11T00:47:21;47.33;;;18.05;;
66129;SDS011;52930;51.464;11.764;2023-02-11T00:49:47;44.43;;;16.60;;
66129;SDS011;52930;51.464;11.764;2023-02-11T00:52:12;47.40;;;16.50;;
66129;SDS011;52930;51.464;11.764;2023-02-11T00:54:38;43.10;;;16.80;;
66129;SDS011;52930;51.464;11.764;2023-02-11T00:57:03;41.13;;;16.57;;
66129;SDS011;52930;51.464;11.764;2023-02-11T00:59:28;43.43;;;16.73;;
66129;SDS011;52930;51.464;11.764;2023-02-11T01:01:54;46.67;;;17.50;;
66129;SDS011;52930;51.464;11.764;2023-02-11T01:04:19;40.42;;;15.95;;
66129;SDS011;52930;51.464;11.764;2023-02-11T01:06:44;47.67;;;19.00;;
66129;SDS011;52930;51.464;11.764;2023-02-11T01:09:10;44.20;;;17.13;;
66129;SDS011;52930;51.464;11.764;2023-02-11T01:11:35;47.60;;;17.50;;
66129;SDS011;52930;51.464;11.764;2023-02-11T01:14:01;52.20;;;17.83;;
66129;SDS011;52930;51.464;11.764;2023-02-11T01:16:26;44.67;;;17.65;;
66129;SDS011;52930;51.464;11.764;2023-02-11T01:18:51;44.95;;;18.13;;
66129;SDS011;52930;51.464;11.764;2023-02-11T01:21:17;49.60;;;17.87;;
66129;SDS011;52930;51.464;11.764;2023-02-11T01:23:43;47.10;;;17.77;;
66129;SDS011;52930;51.464;11.764;2023-02-11T01:26:08;38.57;;;15.93;;
66129;SDS011;52930;51.464;11.764;2023-02-11T01:28:33;44.78;;;17.98;;
66129;SDS011;52930;51.464;11.764;2023-02-11T01:30:59;46.63;;;17.37;;
66129;SDS011;52930;51.464;11.764;2023-02-11T01:33:25;47.47;;;17.80;;
66129;SDS011;52930;51.464;11.764;2023-02-11T01:35:51;41.40;;;16.05;;
66129;SDS011;52930;51.464;11.764;2023-02-11T01:38:21;41.77;;;15.77;;
66129;SDS011;52930;51.464;11.764;2023-02-11T01:40:49;45.83;;;17.23;;
66129;SDS011;52930;51.464;11.764;2023-02-11T01:43:22;36.27;;;16.13;;
66129;SDS011;52930;51.464;11.764;2023-02-11T01:45:56;38.92;;;16.15;;
66129;SDS011;52930;51.464;11.764;2023-02-11T01:48:28;41.65;;;16.42;;
66129;SDS011;52930;51.464;11.764;2023-02-11T01:50:58;46.72;;;16.85;;
66129;SDS011;52930;51.464;11.764;2023-02-11T01:53:27;47.42;;;16.77;;
66129;SDS011;52930;51.464;11.764;2023-02-11T01:56:12;43.77;;;16.97;;
66129;SDS011;52930;51.464;11.764;2023-02-11T01:58:58;38.53;;;14.15;;
66129;SDS011;52930;51.464;11.764;2023-02-11T02:01:27;43.10;;;16.77;;
66129;SDS011;52930;51.464;11.764;2023-02-11T02:03:56;43.47;;;16.75;;
66129;SDS011;52930;51.464;11.764;2023-02-11T02:06:27;43.35;;;16.30;;
66129;SDS011;52930;51.464;11.764;2023-02-11T02:09:08;44.53;;;16.37;;
66129;SDS011;52930;51.464;11.764;2023-02-11T02:11:44;44.00;;;16.88;;
66129;SDS011;52930;51.464;11.764;2023-02-11T02:14:09;45.40;;;16.73;;
66129;SDS011;52930;51.464;11.764;2023-02-11T02:16:35;41.97;;;14.35;;
66129;SDS011;52930;51.464;11.764;2023-02-11T02:24:26;37.97;;;15.77;;
66129;SDS011;52930;51.464;11.764;2023-02-11T02:35:23;42.72;;;16.65;;
66129;SDS011;52930;51.464;11.764;2023-02-11T02:40:49;34.90;;;13.05;;
66129;SDS011;52930;51.464;11.764;2023-02-11T02:43:19;25.73;;;9.73;;
66129;SDS011;52930;51.464;11.764;2023-02-11T02:45:46;39.90;;;16.25;;
66129;SDS011;52930;51.464;11.764;2023-02-11T02:48:31;43.37;;;17.13;;
66129;SDS011;52930;51.464;11.764;2023-02-11T03:07:36;41.53;;;15.82;;
66129;SDS011;52930;51.464;11.764;2023-02-11T03:12:48;44.77;;;16.50;;
66129;SDS011;52930;51.464;11.764;2023-02-11T03:15:13;43.28;;;16.90;;
66129;SDS011;52930;51.464;11.764;2023-02-11T03:17:41;37.78;;;14.35;;
66129;SDS011;52930;51.464;11.764;2023-02-11T03:20:10;42.08;;;17.10;;
66129;SDS011;52930;51.464;11.764;2023-02-11T03:22:38;41.33;;;16.30;;
66129;SDS011;52930;51.464;11.764;2023-02-11T03:25:08;35.88;;;13.27;;
66129;SDS011;52930;51.464;11.764;2023-02-11T03:27:37;47.30;;;17.80;;
66129;SDS011;52930;51.464;11.764;2023-02-11T03:32:33;41.10;;;15.63;;
66129;SDS011;52930;51.464;11.764;2023-02-11T03:37:55;41.90;;;15.93;;
66129;SDS011;52930;51.464;11.764;2023-02-11T03:40:23;40.35;;;17.05;;
66129;SDS011;52930;51.464;11.764;2023-02-11T03:45:27;42.75;;;17.65;;
66129;SDS011;52930;51.464;11.764;2023-02-11T03:47:54;41.20;;;14.77;;
66129;SDS011;52930;51.464;11.764;2023-02-11T03:50:29;41.08;;;15.32;;
66129;SDS011;52930;51.464;11.764;2023-02-11T03:52:55;37.00;;;14.18;;
66129;SDS011;52930;51.464;11.764;2023-02-11T03:55:21;43.83;;;15.90;;
66129;SDS011;52930;51.464;11.764;2023-02-11T03:57:47;39.78;;;14.50;;
66129;SDS011;52930;51.464;11.764;2023-02-11T04:00:12;50.40;;;17.70;;
66129;SDS011;52930;51.464;11.764;2023-02-11T04:02:38;35.90;;;13.05;;
66129;SDS011;52930;51.464;11.764;2023-02-11T04:05:05;45.22;;;17.75;;
66129;SDS011;52930;51.464;11.764;2023-02-11T04:07:31;44.63;;;17.60;;
66129;SDS011;52930;51.464;11.764;2023-02-11T04:09:57;43.60;;;16.75;;
66129;SDS011;52930;51.464;11.764;2023-02-11T04:12:23;41.33;;;15.03;;
66129;SDS011;52930;51.464;11.764;2023-02-11T04:14:48;47.73;;;16.83;;
66129;SDS011;52930;51.464;11.764;2023-02-11T04:17:14;40.33;;;15.27;;
66129;SDS011;52930;51.464;11.764;2023-02-11T04:19:39;46.03;;;17.88;;
66129;SDS011;52930;51.464;11.764;2023-02-11T04:22:05;44.93;;;17.20;;
66129;SDS011;52930;51.464;11.764;2023-02-11T04:24:30;38.57;;;15.83;;
66129;SDS011;52930;51.464;11.764;2023-02-11T04:26:56;41.60;;;16.35;;
66129;SDS011;52930;51.464;11.764;2023-02-11T04:29:21;41.85;;;15.70;;
66129;SDS011;52930;51.464;11.764;2023-02-11T04:31:47;44.53;;;18.20;;
66129;SDS011;52930;51.464;11.764;2023-02-11T04:34:12;37.07;;;14.87;;
66129;SDS011;52930;51.464;11.764;2023-02-11T04:36:38;41.10;;;15.88;;
66129;SDS011;52930;51.464;11.764;2023-02-11T04:39:03;46.90;;;16.43;;
66129;SDS011;52930;51.464;11.764;2023-02-11T04:41:29;47.13;;;17.03;;
66129;SDS011;52930;51.464;11.764;2023-02-11T04:43:54;37.07;;;13.17;;
66129;SDS011;52930;51.464;11.764;2023-02-11T04:46:19;42.55;;;16.40;;
66129;SDS011;52930;51.464;11.764;2023-02-11T04:48:45;33.45;;;12.45;;
66129;SDS011;52930;51.464;11.764;2023-02-11T04:51:10;36.43;;;12.97;;
66129;SDS011;52930;51.464;11.764;2023-02-11T04:53:36;43.60;;;15.30;;
66129;SDS011;52930;51.464;11.764;2023-02-11T04:56:01;42.17;;;15.60;;
66129;SDS011;52930;51.464;11.764;2023-02-11T04:58:26;40.33;;;14.63;;
66129;SDS011;52930;51.464;11.764;2023-02-11T05:00:52;42.50;;;15.93;;
66129;SDS011;52930;51.464;11.764;2023-02-11T05:03:17;31.67;;;12.60;;
66129;SDS011;52930;51.464;11.764;2023-02-11T05:05:42;43.45;;;14.63;;
66129;SDS011;52930;51.464;11.764;2023-02-11T05:08:08;47.22;;;17.52;;
66129;SDS011;52930;51.464;11.764;2023-02-11T05:10:34;49.23;;;16.93;;
66129;SDS011;52930;51.464;11.764;2023-02-11T05:13:00;34.85;;;14.52;;
66129;SDS011;52930;51.464;11.764;2023-02-11T05:15:26;46.40;;;17.00;;
66129;SDS011;52930;51.464;11.764;2023-02-11T05:17:51;47.20;;;17.60;;
66129;SDS011;52930;51.464;11.764;2023-02-11T05:20:17;42.03;;;16.33;;
66129;SDS011;52930;51.464;11.764;2023-02-11T05:22:42;40.83;;;15.40;;
66129;SDS011;52930;51.464;11.764;2023-02-11T05:25:07;35.53;;;13.33;;
66129;SDS011;52930;51.464;11.764;2023-02-11T05:27:33;35.07;;;12.27;;
66129;SDS011;52930;51.464;11.764;2023-02-11T05:29:58;32.47;;;13.53;;
66129;SDS011;52930;51.464;11.764;2023-02-11T05:32:24;36.15;;;12.32;;
66129;SDS011;52930;51.464;11.764;2023-02-11T05:34:49;45.28;;;15.15;;
66129;SDS011;52930;51.464;11.764;2023-02-11T05:37:14;42.17;;;16.83;;
66129;SDS011;52930;51.464;11.764;2023-02-11T05:39:40;32.17;;;11.23;;
66129;SDS011;52930;51.464;11.764;2023-02-11T05:42:05;40.63;;;15.97;;
66129;SDS011;52930;51.464;11.764;2023-02-11T05:44:30;33.40;;;12.53;;
66129;SDS011;52930;51.464;11.764;2023-02-11T05:46:56;45.47;;;16.40;;
66129;SDS011;52930;51.464;11.764;2023-02-11T05:49:21;45.83;;;16.50;;
66129;SDS011;52930;51.464;11.764;2023-02-11T05:51:46;42.28;;;16.30;;
66129;SDS011;52930;51.464;11.764;2023-02-11T05:54:12;46.78;;;16.88;;
66129;SDS011;52930;51.464;11.764;2023-02-11T05:56:37;41.57;;;15.77;;
66129;SDS011;52930;51.464;11.764;2023-02-11T05:59:02;50.47;;;17.20;;
66129;SDS011;52930;51.464;11.764;2023-02-11T06:01:28;49.60;;;17.63;;
66129;SDS011;52930;51.464;11.764;2023-02-11T06:03:53;64.40;;;18.20;;
66129;SDS011;52930;51.464;11.764;2023-02-11T06:06:19;39.40;;;14.43;;
66129;SDS011;52930;51.464;11.764;2023-02-11T06:08:44;49.92;;;17.38;;
66129;SDS011;52930;51.464;11.764;2023-02-11T06:11:09;49.25;;;17.48;;
66129;SDS011;52930;51.464;11.764;2023-02-11T06:13:35;47.30;;;16.80;;
66129;SDS011;52930;51.464;11.764;2023-02-11T06:16:01;44.33;;;15.93;;
66129;SDS011;52930;51.464;11.764;2023-02-11T06:18:26;45.63;;;15.60;;
66129;SDS011;52930;51.464;11.764;2023-02-11T06:20:52;48.30;;;18.23;;
66129;SDS011;52930;51.464;11.764;2023-02-11T06:23:18;48.17;;;17.80;;
66129;SDS011;52930;51.464;11.764;2023-02-11T06:25:43;46.33;;;17.27;;
66129;SDS011;52930;51.464;11.764;2023-02-11T06:28:09;43.17;;;16.37;;
66129;SDS011;52930;51.464;11.764;2023-02-11T06:30:37;48.65;;;17.75;;
66129;SDS011;52930;51.464;11.764;2023-02-11T06:33:03;46.42;;;17.48;;
66129;SDS011;52930;51.464;11.764;2023-02-11T06:35:28;45.70;;;17.52;;
66129;SDS011;52930;51.464;11.764;2023-02-11T06:37:54;48.27;;;17.17;;
66129;SDS011;52930;51.464;11.764;2023-02-11T06:40:20;47.37;;;17.30;;
66129;SDS011;52930;51.464;11.764;2023-02-11T06:42:45;46.60;;;16.55;;
66129;SDS011;52930;51.464;11.764;2023-02-11T06:45:11;46.90;;;16.13;;
66129;SDS011;52930;51.464;11.764;2023-02-11T06:47:37;43.50;;;16.13;;
66129;SDS011;52930;51.464;11.764;2023-02-11T06:50:03;55.17;;;18.85;;
66129;SDS011;52930;51.464;11.764;2023-02-11T06:52:30;48.40;;;17.97;;
66129;SDS011;52930;51.464;11.764;2023-02-11T06:54:56;47.65;;;17.80;;
66129;SDS011;52930;51.464;11.764;2023-02-11T06:57:21;47.97;;;18.07;;
66129;SDS011;52930;51.464;11.764;2023-02-11T06:59:47;48.35;;;17.23;;
66129;SDS011;52930;51.464;11.764;2023-02-11T07:02:12;44.63;;;16.65;;
66129;SDS011;52930;51.464;11.764;2023-02-11T07:04:37;44.43;;;14.47;;
66129;SDS011;52930;51.464;11.764;2023-02-11T07:07:03;41.00;;;15.33;;
66129;SDS011;52930;51.464;11.764;2023-02-11T07:09:28;58.63;;;18.30;;
66129;SDS011;52930;51.464;11.764;2023-02-11T07:11:53;46.53;;;17.73;;
66129;SDS011;52930;51.464;11.764;2023-02-11T07:14:19;45.73;;;16.87;;
66129;SDS011;52930;51.464;11.764;2023-02-11T07:16:44;41.80;;;15.20;;
66129;SDS011;52930;51.464;11.764;2023-02-11T07:19:09;49.50;;;17.93;;
66129;SDS011;52930;51.464;11.764;2023-02-11T07:21:35;38.80;;;15.10;;
66129;SDS011;52930;51.464;11.764;2023-02-11T07:24:00;44.28;;;16.40;;
66129;SDS011;52930;51.464;11.764;2023-02-11T07:26:26;44.38;;;15.98;;
66129;SDS011;52930;51.464;11.764;2023-02-11T07:28:52;44.05;;;16.50;;
66129;SDS011;52930;51.464;11.764;2023-02-11T07:31:19;43.93;;;16.60;;
66129;SDS011;52930;51.464;11.764;2023-02-11T07:33:50;43.17;;;16.53;;
66129;SDS011;52930;51.464;11.764;2023-02-11T07:36:17;44.42;;;17.48;;
66129;SDS011;52930;51.464;11.764;2023-02-11T07:38:42;44.42;;;16.50;;
66129;SDS011;52930;51.464;11.764;2023-02-11T07:41:13;47.33;;;16.70;;
66129;SDS011;52930;51.464;11.764;2023-02-11T07:43:39;48.17;;;16.73;;
66129;SDS011;52930;51.464;11.764;2023-02-11T07:46:06;45.17;;;16.17;;
66129;SDS011;52930;51.464;11.764;2023-02-11T07:48:33;40.47;;;15.38;;
66129;SDS011;52930;51.464;11.764;2023-02-11T07:51:08;47.42;;;17.38;;
66129;SDS011;52930;51.464;11.764;2023-02-11T07:53:35;42.40;;;16.13;;
66129;SDS011;52930;51.464;11.764;2023-02-11T07:56:02;41.60;;;15.05;;
66129;SDS011;52930;51.464;11.764;2023-02-11T07:58:28;42.17;;;17.88;;
66129;SDS011;52930;51.464;11.764;2023-02-11T08:00:53;36.43;;;14.20;;
66129;SDS011;52930;51.464;11.764;2023-02-11T08:03:19;44.80;;;16.70;;
66129;SDS011;52930;51.464;11.764;2023-02-11T08:05:44;44.10;;;16.43;;
66129;SDS011;52930;51.464;11.764;2023-02-11T08:08:09;41.30;;;14.93;;
66129;SDS011;52930;51.464;11.764;2023-02-11T08:10:35;42.33;;;15.50;;
66129;SDS011;52930;51.464;11.764;2023-02-11T08:13:00;41.67;;;15.60;;
66129;SDS011;52930;51.464;11.764;2023-02-11T08:15:26;37.37;;;15.83;;
66129;SDS011;52930;51.464;11.764;2023-02-11T08:17:51;44.43;;;15.93;;
66129;SDS011;52930;51.464;11.764;2023-02-11T08:20:16;44.47;;;16.13;;
66129;SDS011;52930;51.464;11.764;2023-02-11T08:22:42;43.40;;;16.03;;
66129;SDS011;52930;51.464;11.764;2023-02-11T08:25:07;41.05;;;15.88;;
66129;SDS011;52930;51.464;11.764;2023-02-11T08:27:32;39.83;;;15.63;;
66129;SDS011;52930;51.464;11.764;2023-02-11T08:29:58;40.60;;;16.50;;
66129;SDS011;52930;51.464;11.764;2023-02-11T08:32:24;39.28;;;15.18;;
66129;SDS011;52930;51.464;11.764;2023-02-11T08:34:50;43.20;;;16.13;;
66129;SDS011;52930;51.464;11.764;2023-02-11T08:37:16;38.83;;;15.68;;
66129;SDS011;52930;51.464;11.764;2023-02-11T08:39:42;41.08;;;16.48;;
66129;SDS011;52930;51.464;11.764;2023-02-11T08:42:07;44.42;;;17.40;;
66129;SDS011;52930;51.464;11.764;2023-02-11T08:44:33;39.53;;;15.00;;
66129;SDS011;52930;51.464;11.764;2023-02-11T08:46:58;42.03;;;16.27;;
66129;SDS011;52930;51.464;11.764;2023-02-11T08:49:23;42.10;;;16.43;;
66129;SDS011;52930;51.464;11.764;2023-02-11T08:51:49;39.90;;;15.17;;
66129;SDS011;52930;51.464;11.764;2023-02-11T08:54:14;38.90;;;14.70;;
66129;SDS011;52930;51.464;11.764;2023-02-11T08:56:40;38.63;;;14.80;;
66129;SDS011;52930;51.464;11.764;2023-02-11T08:59:05;42.73;;;16.20;;
66129;SDS011;52930;51.464;11.764;2023-02-11T09:01:31;43.95;;;16.50;;
66129;SDS011;52930;51.464;11.764;2023-02-11T09:03:57;38.63;;;14.73;;
66129;SDS011;52930;51.464;11.764;2023-02-11T09:06:23;41.30;;;16.55;;
66129;SDS011;52930;51.464;11.764;2023-02-11T09:08:50;44.85;;;16.90;;
66129;SDS011;52930;51.464;11.764;2023-02-11T09:11:19;47.47;;;16.87;;
66129;SDS011;52930;51.464;11.764;2023-02-11T09:13:46;40.58;;;15.25;;
66129;SDS011;52930;51.464;11.764;2023-02-11T09:16:15;34.85;;;13.57;;
66129;SDS011;52930;51.464;11.764;2023-02-11T09:18:43;41.38;;;15.75;;
66129;SDS011;52930;51.464;11.764;2023-02-11T09:21:12;39.28;;;15.93;;
66129;SDS011;52930;51.464;11.764;2023-02-11T09:23:38;43.75;;;17.13;;
66129;SDS011;52930;51.464;11.764;2023-02-11T09:26:11;41.25;;;16.45;;
66129;SDS011;52930;51.464;11.764;2023-02-11T09:28:39;46.33;;;17.60;;
66129;SDS011;52930;51.464;11.764;2023-02-11T09:31:08;41.05;;;15.88;;
66129;SDS011;52930;51.464;11.764;2023-02-11T09:33:35;47.25;;;18.13;;
66129;SDS011;52930;51.464;11.764;2023-02-11T09:36:02;46.63;;;17.23;;
66129;SDS011;52930;51.464;11.764;2023-02-11T09:38:28;34.00;;;13.10;;
66129;SDS011;52930;51.464;11.764;2023-02-11T09:40:54;42.87;;;16.57;;
66129;SDS011;52930;51.464;11.764;2023-02-11T09:43:20;38.23;;;14.30;;
66129;SDS011;52930;51.464;11.764;2023-02-11T09:45:57;41.58;;;16.40;;
66129;SDS011;52930;51.464;11.764;2023-02-11T09:48:23;43.53;;;17.85;;
66129;SDS011;52930;51.464;11.764;2023-02-11T09:50:53;46.10;;;16.93;;
66129;SDS011;52930;51.464;11.764;2023-02-11T09:53:24;43.72;;;16.33;;
66129;SDS011;52930;51.464;11.764;2023-02-11T09:55:51;47.53;;;16.70;;
66129;SDS011;52930;51.464;11.764;2023-02-11T09:58:27;39.90;;;15.50;;
66129;SDS011;52930;51.464;11.764;2023-02-11T10:09:24;43.85;;;15.52;;
66129;SDS011;52930;51.464;11.764;2023-02-11T10:23:15;38.67;;;14.32;;
66129;SDS011;52930;51.464;11.764;2023-02-11T10:25:45;41.23;;;15.30;;
66129;SDS011;52930;51.464;11.764;2023-02-11T10:28:19;43.20;;;16.17;;
66129;SDS011;52930;51.464;11.764;2023-02-11T10:31:02;42.47;;;16.33;;
66129;SDS011;52930;51.464;11.764;2023-02-11T10:33:30;39.53;;;16.40;;
66129;SDS011;52930;51.464;11.764;2023-02-11T10:35:59;46.67;;;16.42;;
66129;SDS011;52930;51.464;11.764;2023-02-11T10:38:25;38.10;;;14.40;;
66129;SDS011;52930;51.464;11.764;2023-02-11T10:40:51;38.05;;;14.45;;
66129;SDS011;52930;51.464;11.764;2023-02-11T10:43:18;40.00;;;14.63;;
66129;SDS011;52930;51.464;11.764;2023-02-11T10:45:47;42.80;;;14.82;;
66129;SDS011;52930;51.464;11.764;2023-02-11T10:53:43;44.58;;;16.98;;
66129;SDS011;52930;51.464;11.764;2023-02-11T10:56:18;37.88;;;15.43;;
66129;SDS011;52930;51.464;11.764;2023-02-11T10:58:53;36.15;;;14.95;;
66129;SDS011;52930;51.464;11.764;2023-02-11T11:01:45;28.60;;;11.20;;
66129;SDS011;52930;51.464;11.764;2023-02-11T11:06:53;42.47;;;15.20;;
66129;SDS011;52930;51.464;11.764;2023-02-11T11:09:28;36.47;;;13.23;;
66129;SDS011;52930;51.464;11.764;2023-02-11T11:11:55;31.83;;;10.90;;
66129;SDS011;52930;51.464;11.764;2023-02-11T11:14:20;34.53;;;12.60;;
66129;SDS011;52930;51.464;11.764;2023-02-11T11:16:53;41.40;;;14.87;;
66129;SDS011;52930;51.464;11.764;2023-02-11T11:19:20;37.75;;;15.82;;
66129;SDS011;52930;51.464;11.764;2023-02-11T11:21:48;43.83;;;14.82;;
66129;SDS011;52930;51.464;11.764;2023-02-11T11:24:28;34.25;;;12.45;;
66129;SDS011;52930;51.464;11.764;2023-02-11T11:26:59;35.30;;;12.90;;
66129;SDS011;52930;51.464;11.764;2023-02-11T11:29:33;31.43;;;12.63;;
66129;SDS011;52930;51.464;11.764;2023-02-11T11:32:02;37.88;;;14.57;;
66129;SDS011;52930;51.464;11.764;2023-02-11T11:34:36;29.67;;;10.70;;
66129;SDS011;52930;51.464;11.764;2023-02-11T11:37:10;31.92;;;12.27;;
66129;SDS011;52930;51.464;11.764;2023-02-11T11:39:43;32.97;;;12.20;;
66129;SDS011;52930;51.464;11.764;2023-02-11T11:42:25;36.30;;;13.50;;
66129;SDS011;52930;51.464;11.764;2023-02-11T11:44:59;39.80;;;15.00;;
66129;SDS011;52930;51.464;11.764;2023-02-11T11:47:27;34.10;;;13.20;;
66129;SDS011;52930;51.464;11.764;2023-02-11T11:53:10;39.30;;;14.60;;
66129;SDS011;52930;51.464;11.764;2023-02-11T11:55:50;30.53;;;10.23;;
66129;SDS011;52930;51.464;11.764;2023-02-11T11:58:37;35.00;;;13.95;;
66129;SDS011;52930;51.464;11.764;2023-02-11T12:11:23;41.00;;;13.40;;
66129;SDS011;52930;51.464;11.764;2023-02-11T12:13:59;37.40;;;14.13;;
66129;SDS011;52930;51.464;11.764;2023-02-11T12:16:41;33.93;;;13.30;;
66129;SDS011;52930;51.464;11.764;2023-02-11T12:27:41;37.05;;;12.52;;
66129;SDS011;52930;51.464;11.764;2023-02-11T12:51:38;33.22;;;11.95;;
66129;SDS011;52930;51.464;11.764;2023-02-11T12:54:23;26.63;;;10.68;;
66129;SDS011;52930;51.464;11.764;2023-02-11T12:57:12;34.00;;;12.63;;
66129;SDS011;52930;51.464;11.764;2023-02-11T12:59:44;32.72;;;12.52;;
66129;SDS011;52930;51.464;11.764;2023-02-11T13:05:30;26.38;;;9.90;;
66129;SDS011;52930;51.464;11.764;2023-02-11T13:08:18;31.13;;;11.52;;
66129;SDS011;52930;51.464;11.764;2023-02-11T13:10:47;23.50;;;9.43;;
66129;SDS011;52930;51.464;11.764;2023-02-11T13:13:37;32.43;;;12.57;;
66129;SDS011;52930;51.464;11.764;2023-02-11T13:16:04;33.10;;;12.50;;
66129;SDS011;52930;51.464;11.764;2023-02-11T13:35:32;30.77;;;10.43;;
66129;SDS011;52930;51.464;11.764;2023-02-11T13:38:02;26.00;;;10.25;;
66129;SDS011;52930;51.464;11.764;2023-02-11T13:40:31;24.42;;;10.50;;
66129;SDS011;52930;51.464;11.764;2023-02-11T13:42:59;27.00;;;10.65;;
66129;SDS011;52930;51.464;11.764;2023-02-11T13:45:29;30.20;;;11.45;;
66129;SDS011;52930;51.464;11.764;2023-02-11T13:47:58;28.52;;;10.82;;
66129;SDS011;52930;51.464;11.764;2023-02-11T13:50:25;34.00;;;12.90;;
66129;SDS011;52930;51.464;11.764;2023-02-11T13:52:57;31.37;;;11.50;;
66129;SDS011;52930;51.464;11.764;2023-02-11T13:55:24;38.75;;;12.77;;
66129;SDS011;52930;51.464;11.764;2023-02-11T13:58:45;29.02;;;11.48;;
66129;SDS011;52930;51.464;11.764;2023-02-11T14:00:42;30.17;;;10.15;;
66129;SDS011;52930;51.464;11.764;2023-02-11T14:08:59;35.50;;;13.00;;
66129;SDS011;52930;51.464;11.764;2023-02-11T14:19:43;28.23;;;10.27;;
66129;SDS011;52930;51.464;11.764;2023-02-11T14:24:55;26.45;;;10.77;;
66129;SDS011;52930;51.464;11.764;2023-02-11T14:27:23;30.40;;;10.95;;
66129;SDS011;52930;51.464;11.764;2023-02-11T14:43:49;36.45;;;11.52;;
66129;SDS011;52930;51.464;11.764;2023-02-11T14:46:17;34.60;;;12.90;;
66129;SDS011;52930;51.464;11.764;2023-02-11T14:48:47;35.73;;;13.17;;
66129;SDS011;52930;51.464;11.764;2023-02-11T14:51:16;21.05;;;9.18;;
66129;SDS011;52930;51.464;11.764;2023-02-11T14:53:45;37.78;;;13.70;;
66129;SDS011;52930;51.464;11.764;2023-02-11T14:56:16;36.22;;;13.68;;
66129;SDS011;52930;51.464;11.764;2023-02-11T14:58:47;43.85;;;15.57;;
66129;SDS011;52930;51.464;11.764;2023-02-11T15:01:32;41.13;;;14.17;;
66129;SDS011;52930;51.464;11.764;2023-02-11T15:04:00;42.72;;;14.32;;
66129;SDS011;52930;51.464;11.764;2023-02-11T15:09:02;28.17;;;10.40;;
66129;SDS011;52930;51.464;11.764;2023-02-11T15:11:40;25.80;;;9.50;;
66129;SDS011;52930;51.464;11.764;2023-02-11T15:14:10;38.83;;;13.97;;
66129;SDS011;52930;51.464;11.764;2023-02-11T15:16:41;36.50;;;11.88;;
66129;SDS011;52930;51.464;11.764;2023-02-11T15:19:08;28.58;;;11.50;;
66129;SDS011;52930;51.464;11.764;2023-02-11T15:21:43;30.77;;;11.70;;
66129;SDS011;52930;51.464;11.764;2023-02-11T15:24:25;19.55;;;8.07;;
66129;SDS011;52930;51.464;11.764;2023-02-11T15:29:24;35.05;;;12.20;;
66129;SDS011;52930;51.464;11.764;2023-02-11T15:32:40;34.95;;;11.98;;
66129;SDS011;52930;51.464;11.764;2023-02-11T15:34:49;33.35;;;11.30;;
66129;SDS011;52930;51.464;11.764;2023-02-11T15:39:44;34.45;;;13.25;;
66129;SDS011;52930;51.464;11.764;2023-02-11T15:42:17;31.13;;;11.00;;
66129;SDS011;52930;51.464;11.764;2023-02-11T15:44:44;23.90;;;9.30;;
66129;SDS011;52930;51.464;11.764;2023-02-11T15:47:10;27.98;;;11.00;;
66129;SDS011;52930;51.464;11.764;2023-02-11T15:49:36;21.65;;;9.20;;
66129;SDS011;52930;51.464;11.764;2023-02-11T15:52:02;26.00;;;9.33;;
66129;SDS011;52930;51.464;11.764;2023-02-11T15:54:27;30.85;;;10.80;;
66129;SDS011;52930;51.464;11.764;2023-02-11T15:56:59;24.40;;;9.57;;
66129;SDS011;52930;51.464;11.764;2023-02-11T15:59:32;26.70;;;10.38;;
66129;SDS011;52930;51.464;11.764;2023-02-11T16:02:06;32.88;;;11.32;;
66129;SDS011;52930;51.464;11.764;2023-02-11T16:04:37;31.33;;;11.73;;
66129;SDS011;52930;51.464;11.764;2023-02-11T16:07:03;28.13;;;10.20;;
66129;SDS011;52930;51.464;11.764;2023-02-11T16:09:30;27.25;;;10.75;;
66129;SDS011;52930;51.464;11.764;2023-02-11T16:12:00;23.13;;;7.80;;
66129;SDS011;52930;51.464;11.764;2023-02-11T16:17:05;28.92;;;10.60;;
66129;SDS011;52930;51.464;11.764;2023-02-11T16:19:33;27.23;;;10.20;;
66129;SDS011;52930;51.464;11.764;2023-02-11T16:22:00;29.93;;;10.00;;
66129;SDS011;52930;51.464;11.764;2023-02-11T16:24:32;29.75;;;10.50;;
66129;SDS011;52930;51.464;11.764;2023-02-11T16:26:59;30.42;;;10.65;;
66129;SDS011;52930;51.464;11.764;2023-02-11T16:29:26;32.35;;;11.65;;
66129;SDS011;52930;51.464;11.764;2023-02-11T16:34:45;28.83;;;10.80;;
66129;SDS011;52930;51.464;11.764;2023-02-11T16:37:10;30.27;;;10.80;;
66129;SDS011;52930;51.464;11.764;2023-02-11T16:39:35;37.13;;;12.63;;
66129;SDS011;52930;51.464;11.764;2023-02-11T16:42:01;26.93;;;9.73;;
66129;SDS011;52930;51.464;11.764;2023-02-11T16:44:27;32.65;;;11.70;;
66129;SDS011;52930;51.464;11.764;2023-02-11T16:46:53;30.50;;;10.90;;
66129;SDS011;52930;51.464;11.764;2023-02-11T16:49:20;36.70;;;13.05;;
66129;SDS011;52930;51.464;11.764;2023-02-11T16:51:50;30.70;;;11.55;;
66129;SDS011;52930;51.464;11.764;2023-02-11T16:54:21;32.42;;;12.65;;
66129;SDS011;52930;51.464;11.764;2023-02-11T16:56:46;33.20;;;13.33;;
66129;SDS011;52930;51.464;11.764;2023-02-11T16:59:12;30.27;;;11.07;;
66129;SDS011;52930;51.464;11.764;2023-02-11T17:01:38;30.50;;;12.87;;
66129;SDS011;52930;51.464;11.764;2023-02-11T17:04:04;139.02;;;48.45;;
66129;SDS011;52930;51.464;11.764;2023-02-11T17:06:30;258.00;;;90.07;;
66129;SDS011;52930;51.464;11.764;2023-02-11T17:08:57;153.20;;;51.63;;
66129;SDS011;52930;51.464;11.764;2023-02-11T17:11:22;29.87;;;11.40;;
66129;SDS011;52930;51.464;11.764;2023-02-11T17:13:48;44.40;;;18.27;;